createdAt,value
2017-05-16T00:00:59.806Z,20.99
2017-05-16T00:02:10.070Z,20.99
2017-05-16T00:03:20.334Z,20.92
2017-05-16T00:04:30.607Z,20.94
2017-05-16T00:05:40.872Z,20.99
2017-05-16T00:06:51.141Z,20.98
2017-05-16T00:08:01.097Z,20.98
2017-05-16T00:09:11.369Z,20.94
2017-05-16T00:10:21.339Z,20.94
2017-05-16T00:11:31.601Z,21.01
2017-05-16T00:12:41.545Z,20.97
2017-05-16T00:13:51.819Z,20.91
2017-05-16T00:15:02.091Z,20.94
2017-05-16T00:16:12.056Z,20.97
2017-05-16T00:17:22.005Z,20.94
2017-05-16T00:18:32.280Z,20.95
2017-05-16T00:19:42.233Z,21.01
2017-05-16T00:20:52.186Z,20.97
2017-05-16T00:22:02.146Z,20.97
2017-05-16T00:23:12.413Z,20.95
2017-05-16T00:24:22.061Z,20.97
2017-05-16T00:25:32.020Z,20.91
2017-05-16T00:26:42.284Z,20.94
2017-05-16T00:27:52.549Z,20.94
2017-05-16T00:29:02.817Z,20.99
2017-05-16T00:30:12.767Z,20.95
2017-05-16T00:31:22.716Z,20.99
2017-05-16T00:32:32.718Z,20.95
2017-05-16T00:33:42.676Z,20.95
2017-05-16T00:34:52.946Z,20.95
2017-05-16T00:36:02.591Z,20.91
2017-05-16T00:37:12.858Z,20.97
2017-05-16T00:38:23.144Z,20.92
2017-05-16T00:39:33.157Z,20.94
2017-05-16T00:40:43.430Z,20.92
2017-05-16T00:41:53.073Z,20.94
2017-05-16T00:43:03.330Z,20.94
2017-05-16T00:44:13.602Z,20.94
2017-05-16T00:45:22.926Z,21.03
2017-05-16T00:46:32.563Z,20.95
2017-05-16T00:47:42.516Z,20.94
2017-05-16T00:48:52.831Z,20.92
2017-05-16T00:50:03.098Z,20.91
2017-05-16T00:51:12.733Z,20.95
2017-05-16T00:52:22.688Z,20.97
2017-05-16T00:53:32.956Z,20.92
2017-05-16T00:54:43.230Z,20.94
2017-05-16T00:55:53.499Z,20.91
2017-05-16T00:57:03.761Z,20.92
2017-05-16T00:58:13.712Z,21.03
2017-05-16T00:59:23.677Z,20.88
2017-05-16T01:00:33.943Z,20.91
2017-05-16T01:01:44.202Z,20.87
2017-05-16T01:02:54.152Z,20.94
2017-05-16T01:04:04.414Z,20.89
2017-05-16T01:05:14.677Z,20.91
2017-05-16T01:06:24.946Z,21.03
2017-05-16T01:07:34.896Z,20.87
2017-05-16T01:08:44.226Z,20.91
2017-05-16T01:09:54.187Z,20.91
2017-05-16T01:11:03.833Z,20.87
2017-05-16T01:12:13.469Z,20.87
2017-05-16T01:13:22.794Z,20.91
2017-05-16T01:14:33.065Z,20.94
2017-05-16T01:15:42.700Z,20.87
2017-05-16T01:16:52.969Z,20.92
2017-05-16T01:18:03.232Z,20.91
2017-05-16T01:19:13.183Z,20.91
2017-05-16T01:20:23.457Z,20.88
2017-05-16T01:21:33.734Z,20.89
2017-05-16T01:22:43.684Z,20.87
2017-05-16T01:23:53.956Z,20.92
2017-05-16T01:25:03.922Z,20.94
2017-05-16T01:26:13.873Z,20.88
2017-05-16T01:27:24.144Z,20.87
2017-05-16T01:28:34.103Z,20.88
2017-05-16T01:29:44.376Z,20.87
2017-05-16T01:30:54.705Z,20.91
2017-05-16T01:32:04.351Z,20.87
2017-05-16T01:33:14.305Z,20.92
2017-05-16T01:34:24.266Z,20.89
2017-05-16T01:35:34.216Z,20.92
2017-05-16T01:36:44.487Z,20.85
2017-05-16T01:37:54.132Z,20.89
2017-05-16T01:39:04.400Z,20.91
2017-05-16T01:40:14.666Z,20.89
2017-05-16T01:41:24.620Z,20.8
2017-05-16T01:42:34.566Z,20.76
2017-05-16T01:43:44.830Z,20.8
2017-05-16T01:44:55.105Z,20.8
2017-05-16T01:46:05.069Z,20.82
2017-05-16T01:47:15.338Z,20.76
2017-05-16T01:48:25.604Z,20.82
2017-05-16T01:49:35.919Z,20.91
2017-05-16T01:50:45.243Z,20.85
2017-05-16T01:51:55.509Z,20.76
2017-05-16T01:53:05.786Z,20.77
2017-05-16T01:54:15.744Z,20.89
2017-05-16T01:55:25.379Z,20.87
2017-05-16T01:56:35.642Z,20.77
2017-05-16T01:57:45.595Z,20.8
2017-05-16T01:58:55.865Z,20.82
2017-05-16T02:00:05.496Z,20.79
2017-05-16T02:01:15.765Z,20.89
2017-05-16T02:02:25.715Z,20.8
2017-05-16T02:03:35.668Z,20.76
2017-05-16T02:04:45.996Z,20.88
2017-05-16T02:05:56.262Z,20.77
2017-05-16T02:07:06.217Z,20.88
2017-05-16T02:08:16.483Z,20.88
2017-05-16T02:09:26.439Z,20.88
2017-05-16T02:10:36.708Z,20.88
2017-05-16T02:11:46.982Z,20.88
2017-05-16T02:12:57.247Z,20.94
2017-05-16T02:14:06.890Z,20.87
2017-05-16T02:15:16.530Z,20.91
2017-05-16T02:16:26.797Z,20.82
2017-05-16T02:17:36.753Z,20.89
2017-05-16T02:18:47.022Z,20.97
2017-05-16T02:19:57.289Z,20.82
2017-05-16T02:21:07.243Z,20.87
2017-05-16T02:22:17.514Z,20.98
2017-05-16T02:23:27.467Z,20.89
2017-05-16T02:24:37.745Z,20.89
2017-05-16T02:25:48.014Z,20.94
2017-05-16T02:26:58.282Z,20.98
2017-05-16T02:28:08.554Z,20.85
2017-05-16T02:29:18.829Z,20.89
2017-05-16T02:30:29.099Z,20.91
2017-05-16T02:31:39.367Z,20.88
2017-05-16T02:32:49.373Z,20.76
2017-05-16T02:33:59.321Z,20.8
2017-05-16T02:35:09.586Z,20.77
2017-05-16T02:36:19.845Z,20.84
2017-05-16T02:37:29.484Z,20.82
2017-05-16T02:38:39.757Z,20.74
2017-05-16T02:39:49.722Z,20.76
2017-05-16T02:40:59.679Z,20.88
2017-05-16T02:42:09.627Z,20.74
2017-05-16T02:43:19.582Z,20.79
2017-05-16T02:44:29.227Z,20.74
2017-05-16T02:45:39.180Z,20.8
2017-05-16T02:46:49.139Z,20.77
2017-05-16T02:47:59.402Z,20.77
2017-05-16T02:49:09.357Z,20.79
2017-05-16T02:50:19.615Z,20.76
2017-05-16T02:51:29.881Z,20.79
2017-05-16T02:52:40.147Z,20.76
2017-05-16T02:53:50.420Z,20.76
2017-05-16T02:55:00.694Z,20.73
2017-05-16T02:56:10.329Z,20.8
2017-05-16T02:57:20.597Z,20.62
2017-05-16T02:58:30.226Z,20.54
2017-05-16T02:59:40.504Z,20.42
2017-05-16T03:00:50.770Z,20.58
2017-05-16T03:02:00.725Z,20.59
2017-05-16T03:03:10.376Z,20.64
2017-05-16T03:04:20.336Z,20.62
2017-05-16T03:05:30.285Z,20.58
2017-05-16T03:06:40.236Z,20.59
2017-05-16T03:07:50.508Z,20.59
2017-05-16T03:09:00.779Z,20.74
2017-05-16T03:10:11.048Z,20.67
2017-05-16T03:11:21.315Z,20.74
2017-05-16T03:12:31.261Z,20.72
2017-05-16T03:13:41.210Z,20.69
2017-05-16T03:14:51.162Z,20.69
2017-05-16T03:16:01.433Z,20.64
2017-05-16T03:17:11.709Z,20.7
2017-05-16T03:18:21.661Z,20.74
2017-05-16T03:19:31.612Z,20.74
2017-05-16T03:20:41.874Z,20.72
2017-05-16T03:21:52.142Z,20.7
2017-05-16T03:23:02.095Z,20.69
2017-05-16T03:24:12.365Z,20.72
2017-05-16T03:25:22.320Z,20.74
2017-05-16T03:26:32.592Z,20.69
2017-05-16T03:27:42.233Z,20.69
2017-05-16T03:28:52.497Z,20.74
2017-05-16T03:30:02.769Z,20.72
2017-05-16T03:31:12.408Z,20.69
2017-05-16T03:32:22.676Z,20.67
2017-05-16T03:33:32.636Z,20.72
2017-05-16T03:34:42.273Z,20.74
2017-05-16T03:35:52.542Z,20.73
2017-05-16T03:37:02.505Z,20.7
2017-05-16T03:38:12.457Z,20.73
2017-05-16T03:39:22.414Z,20.73
2017-05-16T03:40:32.366Z,20.72
2017-05-16T03:41:42.633Z,20.66
2017-05-16T03:42:52.593Z,20.7
2017-05-16T03:44:02.858Z,20.74
2017-05-16T03:45:12.805Z,20.72
2017-05-16T03:46:22.749Z,20.67
2017-05-16T03:47:33.018Z,20.77
2017-05-16T03:48:43.287Z,20.73
2017-05-16T03:49:53.238Z,20.73
2017-05-16T03:51:03.500Z,20.73
2017-05-16T03:52:13.767Z,20.76
2017-05-16T03:53:24.038Z,20.74
2017-05-16T03:54:33.985Z,20.72
2017-05-16T03:55:44.252Z,20.73
2017-05-16T03:56:54.523Z,20.7
2017-05-16T03:58:04.486Z,20.67
2017-05-16T03:59:14.754Z,20.73
2017-05-16T04:00:24.397Z,20.73
2017-05-16T04:01:34.349Z,20.73
2017-05-16T04:02:44.619Z,20.7
2017-05-16T04:03:54.888Z,20.62
2017-05-16T04:05:04.848Z,20.72
2017-05-16T04:06:14.490Z,20.7
2017-05-16T04:07:24.439Z,20.74
2017-05-16T04:08:34.077Z,20.74
2017-05-16T04:09:44.403Z,20.76
2017-05-16T04:10:54.676Z,20.7
2017-05-16T04:12:04.003Z,20.79
2017-05-16T04:13:14.007Z,20.74
2017-05-16T04:14:24.298Z,20.69
2017-05-16T04:15:33.935Z,20.72
2017-05-16T04:16:44.204Z,20.73
2017-05-16T04:17:54.479Z,20.69
2017-05-16T04:19:04.760Z,20.74
2017-05-16T04:20:15.016Z,20.67
2017-05-16T04:21:25.284Z,20.64
2017-05-16T04:22:35.239Z,20.69
2017-05-16T04:23:45.201Z,20.61
2017-05-16T04:24:55.463Z,20.59
2017-05-16T04:26:05.730Z,20.62
2017-05-16T04:27:15.680Z,20.62
2017-05-16T04:28:25.641Z,20.58
2017-05-16T04:29:35.601Z,20.62
2017-05-16T04:30:45.555Z,20.61
2017-05-16T04:31:55.504Z,20.58
2017-05-16T04:33:05.460Z,20.7
2017-05-16T04:34:14.817Z,20.58
2017-05-16T04:35:24.461Z,20.66
2017-05-16T04:36:34.408Z,20.66
2017-05-16T04:37:44.675Z,20.66
2017-05-16T04:38:54.955Z,20.58
2017-05-16T04:40:05.226Z,20.61
2017-05-16T04:41:15.178Z,20.59
2017-05-16T04:42:25.129Z,20.62
2017-05-16T04:43:35.403Z,20.54
2017-05-16T04:44:45.677Z,20.62
2017-05-16T04:45:55.313Z,20.62
2017-05-16T04:47:05.581Z,20.64
2017-05-16T04:48:15.847Z,20.67
2017-05-16T04:49:26.109Z,20.62
2017-05-16T04:50:35.755Z,20.62
2017-05-16T04:51:46.026Z,20.57
2017-05-16T04:52:56.291Z,20.55
2017-05-16T04:54:06.565Z,20.55
2017-05-16T04:55:16.523Z,20.64
2017-05-16T04:56:26.848Z,20.61
2017-05-16T04:57:37.114Z,20.64
2017-05-16T04:58:47.376Z,20.59
2017-05-16T04:59:57.650Z,20.61
2017-05-16T05:01:07.601Z,20.64
2017-05-16T05:02:17.555Z,20.61
2017-05-16T05:03:27.818Z,20.57
2017-05-16T05:04:38.089Z,20.67
2017-05-16T05:05:48.044Z,20.66
2017-05-16T05:06:58.002Z,20.66
2017-05-16T05:08:08.270Z,20.64
2017-05-16T05:09:17.594Z,20.64
2017-05-16T05:10:27.550Z,20.64
2017-05-16T05:11:37.509Z,20.62
2017-05-16T05:12:47.769Z,20.64
2017-05-16T05:13:58.040Z,20.76
2017-05-16T05:15:08.306Z,20.67
2017-05-16T05:16:17.945Z,20.64
2017-05-16T05:17:27.647Z,20.73
2017-05-16T05:18:37.920Z,20.8
2017-05-16T05:19:48.190Z,20.73
2017-05-16T05:20:58.150Z,20.74
2017-05-16T05:22:07.478Z,20.79
2017-05-16T05:23:17.429Z,20.72
2017-05-16T05:24:27.439Z,20.73
2017-05-16T05:25:37.440Z,20.72
2017-05-16T05:26:47.712Z,20.72
2017-05-16T05:27:57.362Z,20.77
2017-05-16T05:29:07.634Z,20.73
2017-05-16T05:30:17.586Z,20.73
2017-05-16T05:31:27.845Z,20.8
2017-05-16T05:32:37.792Z,20.77
2017-05-16T05:33:48.057Z,20.76
2017-05-16T05:34:58.044Z,20.82
2017-05-16T05:36:08.317Z,20.82
2017-05-16T05:37:18.631Z,20.7
2017-05-16T05:38:28.915Z,20.79
2017-05-16T05:39:39.197Z,20.94
2017-05-16T05:40:49.471Z,20.82
2017-05-16T05:41:59.735Z,20.69
2017-05-16T05:43:09.694Z,20.73
2017-05-16T05:44:19.335Z,20.85
2017-05-16T05:45:28.968Z,20.74
2017-05-16T05:46:39.237Z,20.76
2017-05-16T05:47:49.503Z,20.73
2017-05-16T05:48:59.770Z,20.79
2017-05-16T05:50:10.038Z,20.79
2017-05-16T05:51:20.308Z,20.8
2017-05-16T05:52:30.263Z,20.8
2017-05-16T05:53:40.535Z,20.87
2017-05-16T05:54:50.493Z,20.82
2017-05-16T05:56:00.450Z,20.87
2017-05-16T05:57:10.410Z,20.95
2017-05-16T05:58:20.681Z,20.89
2017-05-16T05:59:30.343Z,20.8
2017-05-16T06:00:39.978Z,20.8
2017-05-16T06:01:49.936Z,20.77
2017-05-16T06:03:00.477Z,20.82
2017-05-16T06:04:10.772Z,20.82
2017-05-16T06:05:21.037Z,20.82
2017-05-16T06:06:31.037Z,20.77
2017-05-16T06:07:41.307Z,20.84
2017-05-16T06:08:51.580Z,20.79
2017-05-16T06:10:01.548Z,20.85
2017-05-16T06:11:11.209Z,20.84
2017-05-16T06:12:21.157Z,20.88
2017-05-16T06:13:31.114Z,20.84
2017-05-16T06:14:41.071Z,20.82
2017-05-16T06:15:51.338Z,20.84
2017-05-16T06:17:01.294Z,20.82
2017-05-16T06:18:11.252Z,20.79
2017-05-16T06:19:21.200Z,20.85
2017-05-16T06:20:31.153Z,20.87
2017-05-16T06:21:41.417Z,20.82
2017-05-16T06:22:51.687Z,20.91
2017-05-16T06:24:01.641Z,20.89
2017-05-16T06:25:11.280Z,20.88
2017-05-16T06:26:20.914Z,20.89
2017-05-16T06:27:30.868Z,20.77
2017-05-16T06:28:41.133Z,20.74
2017-05-16T06:29:51.405Z,20.8
2017-05-16T06:31:01.086Z,20.85
2017-05-16T06:32:11.036Z,20.89
2017-05-16T06:33:21.296Z,20.85
2017-05-16T06:34:31.242Z,20.84
2017-05-16T06:35:40.884Z,20.92
2017-05-16T06:36:51.151Z,20.89
2017-05-16T06:38:01.107Z,20.94
2017-05-16T06:39:11.055Z,20.89
2017-05-16T06:40:21.006Z,20.87
2017-05-16T06:41:30.661Z,20.94
2017-05-16T06:42:40.608Z,20.92
2017-05-16T06:43:50.870Z,20.92
2017-05-16T06:45:01.210Z,20.95
2017-05-16T06:46:11.158Z,20.88
2017-05-16T06:47:21.098Z,20.89
2017-05-16T06:48:30.749Z,20.94
2017-05-16T06:49:41.023Z,20.89
2017-05-16T06:50:50.969Z,20.88
2017-05-16T06:52:01.239Z,20.97
2017-05-16T06:53:11.501Z,20.89
2017-05-16T06:54:21.455Z,20.97
2017-05-16T06:55:31.750Z,20.94
2017-05-16T06:56:41.704Z,20.99
2017-05-16T06:57:51.968Z,20.98
2017-05-16T06:59:01.923Z,20.95
2017-05-16T07:00:11.878Z,20.98
2017-05-16T07:01:21.517Z,20.97
2017-05-16T07:02:31.469Z,20.95
2017-05-16T07:03:41.735Z,20.99
2017-05-16T07:04:51.688Z,20.98
2017-05-16T07:06:01.958Z,21.01
2017-05-16T07:07:11.912Z,20.99
2017-05-16T07:08:21.873Z,20.97
2017-05-16T07:09:32.143Z,21.03
2017-05-16T07:10:42.102Z,20.99
2017-05-16T07:11:52.055Z,20.99
2017-05-16T07:13:02.323Z,20.94
2017-05-16T07:14:12.609Z,21.04
2017-05-16T07:15:22.876Z,21.04
2017-05-16T07:16:33.138Z,21.1
2017-05-16T07:17:43.408Z,21.1
2017-05-16T07:18:53.367Z,21.09
2017-05-16T07:20:03.642Z,21.14
2017-05-16T07:21:13.591Z,21.09
2017-05-16T07:22:23.539Z,21.09
2017-05-16T07:23:33.817Z,21.13
2017-05-16T07:24:44.089Z,20.95
2017-05-16T07:25:54.351Z,20.79
2017-05-16T07:27:04.626Z,20.8
2017-05-16T07:28:14.895Z,20.74
2017-05-16T07:29:25.166Z,20.62
2017-05-16T07:30:35.437Z,20.39
2017-05-16T07:31:45.700Z,20.67
2017-05-16T07:32:55.346Z,20.61
2017-05-16T07:34:05.301Z,20.59
2017-05-16T07:35:14.935Z,20.48
2017-05-16T07:36:25.200Z,20.48
2017-05-16T07:37:35.461Z,20.36
2017-05-16T07:38:45.723Z,20.29
2017-05-16T07:39:55.992Z,20.33
2017-05-16T07:41:05.939Z,20.5
2017-05-16T07:42:15.885Z,20.54
2017-05-16T07:43:26.148Z,20.51
2017-05-16T07:44:35.463Z,20.47
2017-05-16T07:45:45.096Z,20.5
2017-05-16T07:46:55.065Z,20.5
2017-05-16T07:48:05.352Z,20.51
2017-05-16T07:49:15.304Z,20.39
2017-05-16T07:50:25.567Z,20.47
2017-05-16T07:51:35.224Z,20.59
2017-05-16T07:52:45.491Z,20.59
2017-05-16T07:53:55.757Z,20.57
2017-05-16T07:55:05.395Z,20.59
2017-05-16T07:56:15.048Z,20.62
2017-05-16T07:57:24.990Z,20.66
2017-05-16T07:58:35.260Z,20.72
2017-05-16T07:59:44.899Z,20.79
2017-05-16T08:00:54.224Z,20.74
2017-05-16T08:02:04.526Z,20.74
2017-05-16T08:03:14.164Z,20.74
2017-05-16T08:04:24.486Z,20.91
2017-05-16T08:05:34.750Z,20.77
2017-05-16T08:06:44.697Z,20.8
2017-05-16T08:07:54.653Z,20.79
2017-05-16T08:09:04.292Z,20.59
2017-05-16T08:10:14.554Z,20.69
2017-05-16T08:11:24.196Z,20.79
2017-05-16T08:12:34.461Z,20.77
2017-05-16T08:13:44.742Z,20.76
2017-05-16T08:14:55.014Z,20.77
2017-05-16T08:16:05.287Z,20.79
2017-05-16T08:17:15.297Z,20.8
2017-05-16T08:18:25.253Z,20.72
2017-05-16T08:19:35.530Z,20.77
2017-05-16T08:20:45.478Z,20.79
2017-05-16T08:21:55.423Z,20.8
2017-05-16T08:23:05.382Z,20.7
2017-05-16T08:24:15.336Z,20.72
2017-05-16T08:25:25.285Z,20.58
2017-05-16T08:26:35.557Z,20.61
2017-05-16T08:27:45.815Z,20.66
2017-05-16T08:28:55.772Z,20.79
2017-05-16T08:30:05.724Z,20.74
2017-05-16T08:31:15.363Z,20.8
2017-05-16T08:32:25.322Z,20.72
2017-05-16T08:33:34.964Z,20.76
2017-05-16T08:34:44.939Z,20.82
2017-05-16T08:35:55.205Z,20.8
2017-05-16T08:37:05.472Z,20.8
2017-05-16T08:38:15.157Z,20.7
2017-05-16T08:39:25.103Z,20.76
2017-05-16T08:40:34.760Z,20.82
2017-05-16T08:41:45.036Z,20.73
2017-05-16T08:42:55.314Z,20.84
2017-05-16T08:44:05.584Z,20.72
2017-05-16T08:45:15.227Z,20.76
2017-05-16T08:46:25.505Z,20.82
2017-05-16T08:47:35.460Z,20.8
2017-05-16T08:48:45.419Z,20.84
2017-05-16T08:49:55.058Z,20.82
2017-05-16T08:51:04.705Z,20.73
2017-05-16T08:52:14.965Z,20.79
2017-05-16T08:53:24.916Z,20.8
2017-05-16T08:54:35.186Z,20.76
2017-05-16T08:55:44.817Z,20.74
2017-05-16T08:56:55.095Z,20.8
2017-05-16T08:58:05.363Z,20.87
2017-05-16T08:59:14.994Z,20.79
2017-05-16T09:00:24.940Z,20.85
2017-05-16T09:01:34.580Z,20.82
2017-05-16T09:02:44.219Z,20.74
2017-05-16T09:03:54.492Z,20.76
2017-05-16T09:05:04.134Z,20.76
2017-05-16T09:06:14.085Z,20.77
2017-05-16T09:07:24.354Z,20.76
2017-05-16T09:08:34.627Z,20.79
2017-05-16T09:09:44.577Z,20.76
2017-05-16T09:10:54.539Z,20.7
2017-05-16T09:12:04.807Z,20.67
2017-05-16T09:13:14.751Z,20.72
2017-05-16T09:14:24.394Z,20.77
2017-05-16T09:15:34.664Z,20.79
2017-05-16T09:16:44.303Z,20.8
2017-05-16T09:17:54.563Z,20.74
2017-05-16T09:19:04.824Z,20.76
2017-05-16T09:20:14.787Z,20.7
2017-05-16T09:21:25.052Z,20.79
2017-05-16T09:22:35.321Z,20.8
2017-05-16T09:23:44.967Z,20.76
2017-05-16T09:24:55.231Z,20.79
2017-05-16T09:26:05.500Z,20.79
2017-05-16T09:27:15.757Z,20.77
2017-05-16T09:28:26.022Z,20.79
2017-05-16T09:29:35.970Z,20.77
2017-05-16T09:30:46.239Z,20.72
2017-05-16T09:31:56.509Z,20.74
2017-05-16T09:33:06.462Z,20.72
2017-05-16T09:34:16.733Z,20.76
2017-05-16T09:35:27.001Z,20.79
2017-05-16T09:36:37.266Z,20.73
2017-05-16T09:37:47.527Z,20.72
2017-05-16T09:38:56.860Z,20.61
2017-05-16T09:40:06.809Z,20.61
2017-05-16T09:41:16.763Z,20.73
2017-05-16T09:42:26.398Z,20.64
2017-05-16T09:43:36.347Z,20.61
2017-05-16T09:44:46.302Z,20.7
2017-05-16T09:45:56.265Z,20.74
2017-05-16T09:47:06.223Z,20.67
2017-05-16T09:48:16.179Z,20.76
2017-05-16T09:49:26.445Z,20.77
2017-05-16T09:50:36.445Z,20.76
2017-05-16T09:51:46.713Z,20.82
2017-05-16T09:52:56.972Z,20.76
2017-05-16T09:54:06.922Z,20.77
2017-05-16T09:55:17.210Z,20.76
2017-05-16T09:56:27.151Z,20.8
2017-05-16T09:57:37.100Z,20.84
2017-05-16T09:58:47.367Z,20.74
2017-05-16T09:59:57.321Z,20.77
2017-05-16T10:01:07.590Z,20.62
2017-05-16T10:02:17.223Z,20.73
2017-05-16T10:03:26.863Z,20.73
2017-05-16T10:04:36.870Z,20.77
2017-05-16T10:05:47.143Z,20.73
2017-05-16T10:06:57.089Z,20.72
2017-05-16T10:08:07.381Z,20.72
2017-05-16T10:09:17.328Z,20.64
2017-05-16T10:10:27.594Z,20.79
2017-05-16T10:11:37.918Z,20.7
2017-05-16T10:12:48.177Z,20.61
2017-05-16T10:13:57.814Z,20.76
2017-05-16T10:15:07.804Z,20.77
2017-05-16T10:16:17.763Z,20.72
2017-05-16T10:17:27.718Z,20.7
2017-05-16T10:18:37.663Z,20.58
2017-05-16T10:19:47.620Z,20.47
2017-05-16T10:20:57.892Z,20.5
2017-05-16T10:22:07.846Z,20.48
2017-05-16T10:23:17.798Z,20.51
2017-05-16T10:24:27.125Z,20.47
2017-05-16T10:25:37.076Z,20.57
2017-05-16T10:26:47.032Z,20.64
2017-05-16T10:27:57.298Z,20.61
2017-05-16T10:29:06.952Z,20.58
2017-05-16T10:30:17.224Z,20.54
2017-05-16T10:31:27.181Z,20.59
2017-05-16T10:32:37.127Z,20.72
2017-05-16T10:33:47.395Z,20.72
2017-05-16T10:34:57.664Z,20.79
2017-05-16T10:37:16.840Z,20.8
2017-05-16T10:38:27.106Z,20.95
2017-05-16T10:39:36.742Z,20.91
2017-05-16T10:40:46.693Z,20.89
2017-05-16T10:41:56.640Z,20.88
2017-05-16T10:43:06.583Z,20.89
2017-05-16T10:44:16.550Z,20.89
2017-05-16T10:45:25.926Z,20.94
2017-05-16T10:46:35.246Z,20.91
2017-05-16T10:47:45.517Z,20.94
2017-05-16T10:48:55.161Z,20.91
2017-05-16T10:50:04.801Z,20.97
2017-05-16T10:51:15.067Z,20.99
2017-05-16T10:52:25.024Z,20.94
2017-05-16T10:53:34.981Z,20.97
2017-05-16T10:54:44.934Z,21.01
2017-05-16T10:55:54.564Z,21.03
2017-05-16T10:57:04.512Z,21.03
2017-05-16T10:58:14.787Z,21.04
2017-05-16T10:59:24.740Z,20.99
2017-05-16T11:00:35.005Z,20.99
2017-05-16T11:01:45.273Z,20.92
2017-05-16T11:02:55.545Z,21.09
2017-05-16T11:04:05.808Z,20.97
2017-05-16T11:05:16.080Z,21.04
2017-05-16T11:06:26.080Z,20.95
2017-05-16T11:07:36.342Z,20.99
2017-05-16T11:08:45.671Z,21.03
2017-05-16T11:09:55.942Z,21.01
2017-05-16T11:11:05.933Z,21.03
2017-05-16T11:12:16.194Z,21.06
2017-05-16T11:13:26.454Z,21.06
2017-05-16T11:14:36.407Z,21.09
2017-05-16T11:15:46.670Z,21.07
2017-05-16T11:16:56.933Z,21.1
2017-05-16T11:18:06.571Z,21.07
2017-05-16T11:19:16.848Z,21.09
2017-05-16T11:20:27.111Z,21.01
2017-05-16T11:21:37.066Z,21.07
2017-05-16T11:22:47.331Z,21.04
2017-05-16T11:23:57.600Z,21.1
2017-05-16T11:25:07.864Z,21.07
2017-05-16T11:26:17.501Z,21.12
2017-05-16T11:27:27.768Z,21.06
2017-05-16T11:28:38.037Z,21.06
2017-05-16T11:29:48.307Z,21.12
2017-05-16T11:30:57.941Z,21.12
2017-05-16T11:32:07.953Z,21.09
2017-05-16T11:33:17.905Z,21.06
2017-05-16T11:34:27.852Z,21.09
2017-05-16T11:35:38.111Z,21.09
2017-05-16T11:36:48.372Z,21.16
2017-05-16T11:37:58.322Z,21.13
2017-05-16T11:39:08.274Z,21.19
2017-05-16T11:40:18.537Z,21.12
2017-05-16T11:41:28.808Z,21.17
2017-05-16T11:42:38.765Z,21.06
2017-05-16T11:43:49.033Z,21.09
2017-05-16T11:44:58.658Z,21.1
2017-05-16T11:46:08.299Z,21.1
2017-05-16T11:47:18.595Z,21.09
2017-05-16T11:48:28.859Z,21.14
2017-05-16T11:49:39.125Z,21.12
2017-05-16T11:50:49.403Z,21.07
2017-05-16T11:51:59.351Z,21.07
2017-05-16T11:53:08.985Z,21.1
2017-05-16T11:54:19.248Z,21.09
2017-05-16T11:55:29.198Z,21.1
2017-05-16T11:56:39.143Z,21.09
2017-05-16T11:57:49.094Z,21.13
2017-05-16T11:58:59.050Z,21.09
2017-05-16T12:00:09.003Z,21.1
2017-05-16T12:01:19.269Z,21.09
2017-05-16T12:02:29.537Z,21.09
2017-05-16T12:03:39.493Z,21.04
2017-05-16T12:04:49.767Z,21.1
2017-05-16T12:05:59.718Z,21.04
2017-05-16T12:07:09.672Z,21.06
2017-05-16T12:08:19.933Z,21.06
2017-05-16T12:09:29.890Z,21.09
2017-05-16T12:10:39.848Z,21.09
2017-05-16T12:11:50.114Z,21.1
2017-05-16T12:13:00.382Z,21.19
2017-05-16T12:14:10.335Z,21.09
2017-05-16T12:15:20.287Z,21.13
2017-05-16T12:16:30.242Z,21.09
2017-05-16T12:17:40.208Z,21.09
2017-05-16T12:18:50.487Z,21.04
2017-05-16T12:20:00.751Z,21.09
2017-05-16T12:21:10.384Z,21.09
2017-05-16T12:22:20.646Z,21.04
2017-05-16T12:23:30.903Z,21.06
2017-05-16T12:24:40.857Z,21.17
2017-05-16T12:25:51.133Z,21.24
2017-05-16T12:27:01.409Z,21.16
2017-05-16T12:28:11.668Z,21.07
2017-05-16T12:29:21.613Z,21.14
2017-05-16T12:30:31.884Z,21.1
2017-05-16T12:31:41.839Z,21.09
2017-05-16T12:32:52.100Z,21.1
2017-05-16T12:34:01.740Z,21.09
2017-05-16T12:35:12.003Z,21.13
2017-05-16T12:36:22.265Z,21.12
2017-05-16T12:37:32.210Z,21.1
2017-05-16T12:38:42.475Z,21.16
2017-05-16T12:39:52.424Z,21.03
2017-05-16T12:41:02.063Z,21.12
2017-05-16T12:42:11.391Z,21.12
2017-05-16T12:43:21.335Z,21.13
2017-05-16T12:44:31.288Z,21.1
2017-05-16T12:45:40.919Z,21.09
2017-05-16T12:46:51.184Z,21.03
2017-05-16T12:48:01.131Z,21.16
2017-05-16T12:49:11.082Z,21.21
2017-05-16T12:50:21.030Z,21.21
2017-05-16T12:51:30.982Z,21.27
2017-05-16T12:52:40.931Z,21.24
2017-05-16T12:53:50.882Z,21.25
2017-05-16T12:55:01.156Z,21.22
2017-05-16T12:56:11.160Z,21.24
2017-05-16T12:57:21.426Z,21.25
2017-05-16T12:58:31.693Z,21.25
2017-05-16T12:59:41.962Z,21.25
2017-05-16T13:00:52.234Z,21.27
2017-05-16T13:02:02.191Z,21.17
2017-05-16T13:03:12.460Z,21.19
2017-05-16T13:04:22.102Z,21.16
2017-05-16T13:05:32.054Z,21.17
2017-05-16T13:06:42.375Z,21.24
2017-05-16T13:07:52.642Z,21.22
2017-05-16T13:09:02.910Z,21.27
2017-05-16T13:10:12.856Z,21.22
2017-05-16T13:11:22.810Z,21.21
2017-05-16T13:12:33.071Z,21.19
2017-05-16T13:13:43.342Z,21.25
2017-05-16T13:14:53.609Z,21.16
2017-05-16T13:16:03.301Z,21.25
2017-05-16T13:17:13.255Z,21.27
2017-05-16T13:18:23.209Z,21.27
2017-05-16T13:19:33.159Z,21.21
2017-05-16T13:20:43.428Z,21.25
2017-05-16T13:21:53.378Z,21.25
2017-05-16T13:23:03.331Z,21.22
2017-05-16T13:24:13.278Z,21.21
2017-05-16T13:25:23.229Z,21.21
2017-05-16T13:26:33.490Z,21.22
2017-05-16T13:27:43.437Z,21.25
2017-05-16T13:28:53.384Z,21.17
2017-05-16T13:30:03.660Z,21.22
2017-05-16T13:31:12.977Z,21.25
2017-05-16T13:32:22.926Z,21.27
2017-05-16T13:33:33.192Z,21.25
2017-05-16T13:34:42.517Z,21.27
2017-05-16T13:35:52.776Z,21.24
2017-05-16T13:37:02.734Z,21.24
2017-05-16T13:38:12.688Z,21.27
2017-05-16T13:39:22.999Z,21.24
2017-05-16T13:40:32.952Z,21.21
2017-05-16T13:41:43.217Z,21.27
2017-05-16T13:42:52.857Z,21.28
2017-05-16T13:44:03.123Z,21.28
2017-05-16T13:45:12.761Z,21.25
2017-05-16T13:46:23.028Z,21.27
2017-05-16T13:47:32.670Z,21.28
2017-05-16T13:48:42.620Z,21.31
2017-05-16T13:49:52.566Z,21.38
2017-05-16T13:51:02.830Z,21.28
2017-05-16T13:52:12.466Z,21.27
2017-05-16T13:53:22.735Z,21.28
2017-05-16T13:54:32.681Z,21.27
2017-05-16T13:55:42.640Z,21.24
2017-05-16T13:56:52.597Z,21.27
2017-05-16T13:58:02.232Z,21.22
2017-05-16T13:59:12.494Z,21.27
2017-05-16T14:00:22.452Z,21.25
2017-05-16T14:01:32.730Z,21.21
2017-05-16T14:02:42.701Z,21.28
2017-05-16T14:03:52.345Z,21.29
2017-05-16T14:05:02.623Z,21.28
2017-05-16T14:06:12.310Z,21.25
2017-05-16T14:07:22.262Z,21.32
2017-05-16T14:08:32.538Z,21.27
2017-05-16T14:09:42.821Z,21.27
2017-05-16T14:10:52.504Z,21.37
2017-05-16T14:12:02.451Z,21.34
2017-05-16T14:13:12.403Z,21.35
2017-05-16T14:14:22.671Z,21.25
2017-05-16T14:15:32.963Z,21.37
2017-05-16T14:16:43.223Z,21.34
2017-05-16T14:17:53.232Z,21.31
2017-05-16T14:19:03.190Z,21.28
2017-05-16T14:20:13.466Z,21.29
2017-05-16T14:21:23.415Z,21.34
2017-05-16T14:22:33.687Z,21.37
2017-05-16T14:23:43.639Z,21.22
2017-05-16T14:24:53.592Z,21.32
2017-05-16T14:26:03.899Z,21.32
2017-05-16T14:27:13.535Z,21.37
2017-05-16T14:28:23.802Z,21.32
2017-05-16T14:29:33.750Z,21.38
2017-05-16T14:30:43.710Z,21.32
2017-05-16T14:31:53.664Z,21.24
2017-05-16T14:33:03.612Z,21.32
2017-05-16T14:34:13.556Z,21.31
2017-05-16T14:35:23.520Z,21.31
2017-05-16T14:36:33.155Z,21.31
2017-05-16T14:37:43.114Z,21.46
2017-05-16T14:38:53.063Z,21.35
2017-05-16T14:40:03.364Z,21.35
2017-05-16T14:41:13.863Z,21.35
2017-05-16T14:42:25.073Z,21.34
2017-05-16T14:43:36.505Z,21.32
2017-05-16T14:44:47.567Z,21.4
2017-05-16T14:45:58.432Z,21.35
2017-05-16T14:47:09.777Z,21.38
2017-05-16T14:48:21.073Z,21.37
2017-05-16T14:49:32.153Z,21.38
2017-05-16T14:50:43.976Z,21.4
2017-05-16T14:51:55.029Z,21.43
2017-05-16T14:53:05.931Z,21.35
2017-05-16T14:54:16.788Z,21.43
2017-05-16T14:55:28.028Z,21.34
2017-05-16T14:56:39.278Z,21.37
2017-05-16T14:57:50.512Z,21.4
2017-05-16T14:59:01.477Z,21.42
2017-05-16T15:00:14.082Z,21.43
2017-05-16T15:01:24.191Z,21.29
2017-05-16T15:02:35.415Z,21.17
2017-05-16T15:03:46.642Z,21.04
2017-05-16T15:04:57.587Z,20.95
2017-05-16T15:06:09.009Z,21.01